createdAt,value
2023-01-10T00:00:41.575Z,7.00
2023-01-10T00:03:10.418Z,7.00
2023-01-10T00:05:38.845Z,6.90
2023-01-10T00:08:07.053Z,6.90
2023-01-10T00:10:35.201Z,7.00
2023-01-10T00:13:28.454Z,6.90
2023-01-10T00:15:56.414Z,7.00
2023-01-10T00:18:23.535Z,7.00
2023-01-10T00:20:50.629Z,7.00
2023-01-10T00:23:20.442Z,7.00
2023-01-10T00:25:47.535Z,7.00
2023-01-10T00:28:21.246Z,7.00
2023-01-10T00:31:01.330Z,7.00
2023-01-10T00:33:33.524Z,7.00
2023-01-10T00:36:01.531Z,7.10
2023-01-10T00:38:28.769Z,6.90
2023-01-10T00:40:55.852Z,7.10
2023-01-10T00:43:41.746Z,7.10
2023-01-10T00:46:09.579Z,7.10
2023-01-10T00:48:37.365Z,7.10
2023-01-10T00:51:05.194Z,7.10
2023-01-10T00:53:32.133Z,7.10
2023-01-10T00:55:59.296Z,7.10
2023-01-10T00:58:26.073Z,7.10
2023-01-10T01:00:53.000Z,7.10
2023-01-10T01:03:21.752Z,7.10
2023-01-10T01:05:49.232Z,7.10
2023-01-10T01:08:18.224Z,7.00
2023-01-10T01:10:47.201Z,7.00
2023-01-10T01:13:20.515Z,7.00
2023-01-10T01:15:48.332Z,7.00
2023-01-10T01:18:21.133Z,7.00
2023-01-10T01:20:52.482Z,7.00
2023-01-10T01:23:19.425Z,7.00
2023-01-10T01:25:49.810Z,7.00
2023-01-10T01:28:16.830Z,7.00
2023-01-10T01:30:44.017Z,7.00
2023-01-10T01:33:11.180Z,7.00
2023-01-10T01:35:38.244Z,7.00
2023-01-10T01:38:05.384Z,7.00
2023-01-10T01:40:32.752Z,7.00
2023-01-10T01:42:59.869Z,7.00
2023-01-10T01:45:29.793Z,7.00
2023-01-10T01:48:20.817Z,7.00
2023-01-10T01:51:11.977Z,7.00
2023-01-10T01:53:39.037Z,7.00
2023-01-10T01:56:22.112Z,7.00
2023-01-10T01:58:58.610Z,7.00
2023-01-10T02:01:26.486Z,7.00
2023-01-10T02:04:03.186Z,6.90
2023-01-10T02:06:30.383Z,6.90
2023-01-10T02:09:08.648Z,6.90
2023-01-10T02:11:35.516Z,6.90
2023-01-10T02:14:07.024Z,6.90
2023-01-10T02:16:34.226Z,6.90
2023-01-10T02:19:01.343Z,6.90
2023-01-10T02:22:05.601Z,6.90
2023-01-10T02:24:55.738Z,6.90
2023-01-10T02:27:32.014Z,6.80
2023-01-10T02:30:35.735Z,6.90
2023-01-10T02:33:34.515Z,6.80
2023-01-10T02:36:27.322Z,6.80
2023-01-10T02:39:12.477Z,6.80
2023-01-10T02:41:46.754Z,6.80
2023-01-10T02:44:39.695Z,6.80
2023-01-10T02:47:09.019Z,6.80
2023-01-10T02:49:49.898Z,6.80
2023-01-10T02:52:23.545Z,6.70
2023-01-10T02:54:55.948Z,6.80
2023-01-10T02:57:50.630Z,6.70
2023-01-10T03:00:35.890Z,6.70
2023-01-10T03:03:14.843Z,6.70
2023-01-10T03:06:07.821Z,6.70
2023-01-10T03:08:48.664Z,6.70
2023-01-10T03:11:15.706Z,6.70
2023-01-10T03:14:00.980Z,6.60
2023-01-10T03:16:32.443Z,6.70
2023-01-10T03:19:11.725Z,6.60
2023-01-10T03:21:41.046Z,6.60
2023-01-10T03:24:17.491Z,6.60
2023-01-10T03:26:56.371Z,6.60
2023-01-10T03:29:34.046Z,6.60
2023-01-10T03:32:04.907Z,6.60
2023-01-10T03:34:32.684Z,6.60
2023-01-10T03:37:23.867Z,6.50
2023-01-10T03:40:14.614Z,6.50
2023-01-10T03:43:29.074Z,6.50
2023-01-10T03:46:03.267Z,6.50
2023-01-10T03:48:34.776Z,6.50
2023-01-10T03:51:04.446Z,6.50
2023-01-10T03:53:33.066Z,6.50
2023-01-10T03:56:00.546Z,6.50
2023-01-10T03:58:29.733Z,6.50
2023-01-10T04:00:57.155Z,6.40
2023-01-10T04:03:24.106Z,6.50
2023-01-10T04:05:50.928Z,6.40
2023-01-10T04:08:17.746Z,6.50
2023-01-10T04:10:44.584Z,6.50
2023-01-10T04:13:11.523Z,6.50
2023-01-10T04:15:39.552Z,6.50
2023-01-10T04:18:06.365Z,6.40
2023-01-10T04:20:33.204Z,6.50
2023-01-10T04:23:00.026Z,6.50
2023-01-10T04:25:26.885Z,6.50
2023-01-10T04:27:53.822Z,6.50
2023-01-10T04:30:20.886Z,6.50
2023-01-10T04:32:48.106Z,6.50
2023-01-10T04:35:15.442Z,6.50
2023-01-10T04:37:43.532Z,6.50
2023-01-10T04:40:11.228Z,6.50
2023-01-10T04:42:38.196Z,6.50
2023-01-10T04:45:05.707Z,6.60
2023-01-10T04:47:32.768Z,6.50
2023-01-10T04:49:59.622Z,6.60
2023-01-10T04:52:28.245Z,6.60
2023-01-10T04:54:55.050Z,6.60
2023-01-10T04:57:21.962Z,6.60
2023-01-10T04:59:49.052Z,6.60
2023-01-10T05:02:16.723Z,6.60
2023-01-10T05:04:43.655Z,6.60
2023-01-10T05:07:10.529Z,6.60
2023-01-10T05:09:37.790Z,6.60
2023-01-10T05:12:04.926Z,6.30
2023-01-10T05:14:32.962Z,6.60
2023-01-10T05:17:00.113Z,6.60
2023-01-10T05:19:27.167Z,6.50
2023-01-10T05:21:54.065Z,6.50
2023-01-10T05:24:20.852Z,6.40
2023-01-10T05:26:47.748Z,6.40
2023-01-10T05:29:15.011Z,6.40
2023-01-10T05:31:42.466Z,6.30
2023-01-10T05:34:12.775Z,6.30
2023-01-10T05:36:40.406Z,6.20
2023-01-10T05:39:07.483Z,6.20
2023-01-10T05:41:34.332Z,6.10
2023-01-10T05:44:01.216Z,6.10
2023-01-10T05:46:28.388Z,6.00
2023-01-10T05:48:55.487Z,6.10
2023-01-10T05:51:22.300Z,6.00
2023-01-10T05:53:50.296Z,6.00
2023-01-10T05:56:17.389Z,6.00
2023-01-10T05:58:47.236Z,5.90
2023-01-10T06:01:16.684Z,5.90
2023-01-10T06:03:43.942Z,5.90
2023-01-10T06:06:11.061Z,5.90
2023-01-10T06:08:38.031Z,5.80
2023-01-10T06:11:06.137Z,5.80
2023-01-10T06:13:33.679Z,5.80
2023-01-10T06:16:00.719Z,5.80
2023-01-10T06:18:27.729Z,5.70
2023-01-10T06:20:54.564Z,5.70
2023-01-10T06:23:21.706Z,5.70
2023-01-10T06:25:48.525Z,5.60
2023-01-10T06:28:15.342Z,5.60
2023-01-10T06:30:43.565Z,5.60
2023-01-10T06:33:11.462Z,5.60
2023-01-10T06:35:39.389Z,5.50
2023-01-10T06:38:06.267Z,5.50
2023-01-10T06:40:33.289Z,5.40
2023-01-10T06:43:00.278Z,5.40
2023-01-10T06:45:27.297Z,5.30
2023-01-10T06:47:54.134Z,5.30
2023-01-10T06:50:20.977Z,5.30
2023-01-10T06:53:02.265Z,5.20
2023-01-10T06:55:29.717Z,5.30
2023-01-10T06:58:01.451Z,5.30
2023-01-10T07:00:29.586Z,5.30
2023-01-10T07:02:59.196Z,5.30
2023-01-10T07:05:26.237Z,5.30
2023-01-10T07:07:54.103Z,5.20
2023-01-10T07:10:21.102Z,5.20
2023-01-10T07:12:47.885Z,5.20
2023-01-10T07:15:14.675Z,5.20
2023-01-10T07:17:41.488Z,5.20
2023-01-10T07:20:09.099Z,5.30
2023-01-10T07:22:35.893Z,5.30
2023-01-10T07:25:03.312Z,5.20
2023-01-10T07:27:33.539Z,5.20
2023-01-10T07:30:00.363Z,5.20
2023-01-10T07:32:27.875Z,5.30
2023-01-10T07:34:54.680Z,5.30
2023-01-10T07:37:21.578Z,5.30
2023-01-10T07:39:49.127Z,5.30
2023-01-10T07:42:15.924Z,5.30
2023-01-10T07:44:42.734Z,5.30
2023-01-10T07:47:09.575Z,5.30
2023-01-10T07:49:36.365Z,5.30
2023-01-10T07:52:03.328Z,5.40
2023-01-10T07:54:30.160Z,5.40
2023-01-10T07:56:57.169Z,5.40
2023-01-10T07:59:24.023Z,5.40
2023-01-10T08:01:50.925Z,5.30
2023-01-10T08:04:17.706Z,5.40
2023-01-10T08:06:44.497Z,5.40
2023-01-10T08:09:11.429Z,5.40
2023-01-10T08:11:39.733Z,5.40
2023-01-10T08:14:08.281Z,5.40
2023-01-10T08:16:35.145Z,5.40
2023-01-10T08:19:01.944Z,5.30
2023-01-10T08:21:28.757Z,5.30
2023-01-10T08:23:55.559Z,5.30
2023-01-10T08:26:22.442Z,5.30
2023-01-10T08:28:49.234Z,5.30
2023-01-10T08:31:16.141Z,5.30
2023-01-10T08:33:42.992Z,5.30
2023-01-10T08:36:22.121Z,5.30
2023-01-10T08:38:50.980Z,5.30
2023-01-10T08:41:17.933Z,5.30
2023-01-10T08:43:44.782Z,5.30
2023-01-10T08:46:11.718Z,5.30
2023-01-10T08:48:38.645Z,5.30
2023-01-10T08:51:08.062Z,5.30
2023-01-10T08:53:35.074Z,5.40
2023-01-10T08:56:04.222Z,5.40
2023-01-10T08:58:32.273Z,5.40
2023-01-10T09:00:59.090Z,5.40
2023-01-10T09:03:25.906Z,5.40
2023-01-10T09:05:52.803Z,5.40
2023-01-10T09:08:20.835Z,5.40
2023-01-10T09:10:48.684Z,5.40
2023-01-10T09:13:15.737Z,5.40
2023-01-10T09:15:43.500Z,5.40
2023-01-10T09:18:12.908Z,5.30
2023-01-10T09:20:41.583Z,5.40
2023-01-10T09:23:11.600Z,5.40
2023-01-10T09:25:38.729Z,5.30
2023-01-10T09:28:06.164Z,5.30
2023-01-10T09:30:33.114Z,5.40
2023-01-10T09:33:00.503Z,5.50
2023-01-10T09:35:29.457Z,5.50
2023-01-10T09:37:58.063Z,5.50
2023-01-10T09:40:55.737Z,5.60
2023-01-10T09:43:47.517Z,5.50
2023-01-10T09:46:14.281Z,5.60
2023-01-10T09:48:55.439Z,5.60
2023-01-10T09:51:37.396Z,5.60
2023-01-10T09:54:12.705Z,5.60
2023-01-10T09:56:40.887Z,5.60
2023-01-10T09:59:49.031Z,5.60
2023-01-10T10:02:39.528Z,5.60
2023-01-10T10:05:28.359Z,5.60
2023-01-10T10:07:58.458Z,5.70
2023-01-10T10:10:29.786Z,5.70
2023-01-10T10:13:26.872Z,5.70
2023-01-10T10:16:02.407Z,5.80
2023-01-10T10:18:48.449Z,5.80
2023-01-10T10:21:38.570Z,5.80
2023-01-10T10:24:11.228Z,5.80
2023-01-10T10:26:59.710Z,5.90
2023-01-10T10:29:49.965Z,5.90
2023-01-10T10:32:42.449Z,6.00
2023-01-10T10:35:12.310Z,6.00
2023-01-10T10:37:48.183Z,6.10
2023-01-10T10:40:15.062Z,6.00
2023-01-10T10:42:57.093Z,5.90
2023-01-10T10:45:40.789Z,5.90
2023-01-10T10:48:19.501Z,5.90
2023-01-10T10:51:32.810Z,5.90
2023-01-10T10:53:59.742Z,6.00
2023-01-10T10:56:27.015Z,6.00
2023-01-10T10:58:56.713Z,6.10
2023-01-10T11:01:26.336Z,6.10
2023-01-10T11:03:58.792Z,6.00
2023-01-10T11:06:28.659Z,6.00
2023-01-10T11:09:02.146Z,5.90
2023-01-10T11:11:39.751Z,6.00
2023-01-10T11:14:08.606Z,6.00
2023-01-10T11:16:41.770Z,6.00
2023-01-10T11:19:23.361Z,6.00
2023-01-10T11:22:06.184Z,5.90
2023-01-10T11:24:36.753Z,5.90
2023-01-10T11:27:15.502Z,5.90
2023-01-10T11:29:48.150Z,5.90
2023-01-10T11:32:19.321Z,5.90
2023-01-10T11:34:59.099Z,5.90
2023-01-10T11:37:31.582Z,5.90
2023-01-10T11:40:13.801Z,5.90
2023-01-10T11:42:40.835Z,6.00
2023-01-10T11:45:29.866Z,5.90
2023-01-10T11:48:32.905Z,6.00
2023-01-10T11:51:26.071Z,6.00
2023-01-10T11:54:07.284Z,6.00
2023-01-10T11:56:39.946Z,6.00
2023-01-10T11:59:18.490Z,6.00
2023-01-10T12:02:12.455Z,6.00
2023-01-10T12:04:47.050Z,6.00
2023-01-10T12:07:14.088Z,6.10
2023-01-10T12:09:53.912Z,6.20
2023-01-10T12:12:25.601Z,6.30
2023-01-10T12:14:54.189Z,6.20
2023-01-10T12:17:25.728Z,6.20
2023-01-10T12:19:55.397Z,6.20
2023-01-10T12:22:37.085Z,6.20
2023-01-10T12:25:15.528Z,6.20
2023-01-10T12:27:44.798Z,6.10
2023-01-10T12:30:25.819Z,6.10
2023-01-10T12:32:55.005Z,6.10
2023-01-10T12:35:38.898Z,6.10
2023-01-10T12:38:46.387Z,6.10
2023-01-10T12:41:39.186Z,6.10
2023-01-10T12:44:16.402Z,6.00
2023-01-10T12:47:07.406Z,6.00
2023-01-10T12:49:48.022Z,6.00
2023-01-10T12:52:24.444Z,6.00
2023-01-10T12:54:51.321Z,6.00
2023-01-10T12:57:32.110Z,6.00
2023-01-10T13:00:03.818Z,6.00
2023-01-10T13:02:44.258Z,6.00
2023-01-10T13:05:24.619Z,6.00
2023-01-10T13:07:54.545Z,6.00
2023-01-10T13:10:23.898Z,6.00
2023-01-10T13:12:57.759Z,6.00
2023-01-10T13:15:57.420Z,6.00
2023-01-10T13:18:26.022Z,6.00
2023-01-10T13:21:13.557Z,5.90
2023-01-10T13:23:49.012Z,5.90
2023-01-10T13:26:16.213Z,5.90
2023-01-10T13:29:00.612Z,5.90
2023-01-10T13:31:31.959Z,5.90
2023-01-10T13:34:00.729Z,5.90
2023-01-10T13:36:31.863Z,5.80
2023-01-10T13:39:02.175Z,5.80
2023-01-10T13:42:18.753Z,5.80
2023-01-10T13:59:02.269Z,5.70
2023-01-10T14:01:55.348Z,6.00
2023-01-10T14:04:31.608Z,5.90
2023-01-10T14:07:04.685Z,5.90
2023-01-10T14:09:38.347Z,5.80
2023-01-10T14:12:16.955Z,5.80
2023-01-10T14:15:01.574Z,5.70
2023-01-10T14:17:36.870Z,5.70
2023-01-10T14:20:17.377Z,5.60
2023-01-10T14:22:57.741Z,5.70
2023-01-10T14:25:27.490Z,5.60
2023-01-10T14:27:55.608Z,5.60
2023-01-10T14:30:33.093Z,5.50
2023-01-10T14:33:06.309Z,5.50
2023-01-10T14:35:39.463Z,5.40
2023-01-10T14:38:13.503Z,5.40
2023-01-10T14:40:46.143Z,5.40
2023-01-10T14:43:17.123Z,5.40
2023-01-10T14:45:56.090Z,5.30
2023-01-10T14:48:32.864Z,5.30
2023-01-10T14:51:23.540Z,5.30
2023-01-10T14:53:57.549Z,5.20
2023-01-10T14:56:28.232Z,5.20
2023-01-10T14:58:55.178Z,5.20
2023-01-10T15:01:26.037Z,5.20
2023-01-10T15:03:54.208Z,5.10
2023-01-10T15:06:21.322Z,5.10
2023-01-10T15:08:56.920Z,5.10
2023-01-10T15:11:26.719Z,5.10
2023-01-10T15:14:00.127Z,5.10
2023-01-10T15:16:28.715Z,5.10
2023-01-10T15:18:56.745Z,5.10
2023-01-10T15:21:24.483Z,5.00
2023-01-10T15:23:51.533Z,5.10
2023-01-10T15:26:26.227Z,5.10
2023-01-10T15:29:14.596Z,5.10
2023-01-10T15:31:42.149Z,5.10
2023-01-10T15:34:20.648Z,5.10
2023-01-10T15:36:54.567Z,5.10
2023-01-10T15:39:28.358Z,5.10
2023-01-10T15:42:09.833Z,5.20
2023-01-10T15:44:38.629Z,5.10
2023-01-10T15:47:06.975Z,5.20
2023-01-10T15:49:33.911Z,5.20
2023-01-10T15:52:00.772Z,5.20
2023-01-10T15:54:30.784Z,5.10
2023-01-10T15:57:06.736Z,5.10
2023-01-10T15:59:38.241Z,5.10
2023-01-10T16:02:32.488Z,5.10
2023-01-10T16:05:10.203Z,5.10
2023-01-10T16:07:44.072Z,5.10
2023-01-10T16:10:21.558Z,5.00
2023-01-10T16:13:06.921Z,5.00
2023-01-10T16:15:38.169Z,5.00
2023-01-10T16:18:05.288Z,5.00
2023-01-10T16:20:36.823Z,5.00
2023-01-10T16:23:08.839Z,4.90
2023-01-10T16:25:40.284Z,4.90
2023-01-10T16:28:07.183Z,4.90
2023-01-10T16:30:34.974Z,4.90
2023-01-10T16:33:11.983Z,4.90
2023-01-10T16:35:39.411Z,4.80
2023-01-10T16:38:06.425Z,4.90
2023-01-10T16:40:51.622Z,4.90
2023-01-10T16:43:19.180Z,4.80
2023-01-10T16:45:50.975Z,4.80
2023-01-10T16:48:19.550Z,4.80
2023-01-10T16:50:48.582Z,4.70
2023-01-10T16:53:17.897Z,4.80
2023-01-10T16:55:50.815Z,4.80
2023-01-10T16:58:19.303Z,4.70
2023-01-10T17:00:48.819Z,4.70
2023-01-10T17:03:18.512Z,4.70
2023-01-10T17:05:45.511Z,4.70
2023-01-10T17:08:22.315Z,4.60
2023-01-10T17:10:59.713Z,4.60
2023-01-10T17:13:30.920Z,4.60
2023-01-10T17:15:58.785Z,4.60
2023-01-10T17:18:28.587Z,4.60
2023-01-10T17:20:57.206Z,4.60
2023-01-10T17:23:25.369Z,4.60
2023-01-10T17:26:02.430Z,4.60
2023-01-10T17:28:29.489Z,4.60
2023-01-10T17:30:57.460Z,4.50
2023-01-10T17:33:25.509Z,4.50
2023-01-10T17:35:56.688Z,4.50
2023-01-10T17:38:25.557Z,4.40
2023-01-10T17:40:53.202Z,4.50
2023-01-10T17:43:21.213Z,4.50
2023-01-10T17:45:50.823Z,4.40
2023-01-10T17:48:18.872Z,4.40
2023-01-10T17:50:47.786Z,4.40
2023-01-10T17:53:16.723Z,4.30
2023-01-10T17:55:44.931Z,4.30
2023-01-10T17:58:11.761Z,4.30
2023-01-10T18:00:38.844Z,4.30
2023-01-10T18:03:06.434Z,4.20
2023-01-10T18:05:35.178Z,4.20
2023-01-10T18:08:02.966Z,4.20
2023-01-10T18:10:30.185Z,4.20
2023-01-10T18:12:57.099Z,4.20
2023-01-10T18:15:24.726Z,4.00
2023-01-10T18:17:52.252Z,4.10
2023-01-10T18:20:19.457Z,4.10
2023-01-10T18:23:05.160Z,4.10
2023-01-10T18:25:32.103Z,4.10
2023-01-10T18:28:00.224Z,4.00
2023-01-10T18:30:27.119Z,4.00
2023-01-10T18:32:54.883Z,4.00
2023-01-10T18:35:22.536Z,3.90
2023-01-10T18:37:49.510Z,3.90
2023-01-10T18:40:16.623Z,3.90
2023-01-10T18:42:43.543Z,3.90
2023-01-10T18:45:10.743Z,3.90
2023-01-10T18:47:37.642Z,3.90
2023-01-10T18:50:05.342Z,3.80
2023-01-10T18:52:32.268Z,3.80
2023-01-10T18:55:00.922Z,3.70
2023-01-10T18:57:32.524Z,3.70
2023-01-10T18:59:59.449Z,3.70
2023-01-10T19:02:26.376Z,3.70
2023-01-10T19:04:53.198Z,3.70
2023-01-10T19:07:19.995Z,3.80
2023-01-10T19:09:46.873Z,3.80
2023-01-10T19:12:13.888Z,3.80
2023-01-10T19:14:40.684Z,3.90
2023-01-10T19:17:07.534Z,4.00
2023-01-10T19:19:34.492Z,3.90
2023-01-10T19:22:01.407Z,4.00
2023-01-10T19:24:29.799Z,4.10
2023-01-10T19:26:57.137Z,4.10
2023-01-10T19:29:24.663Z,4.20
2023-01-10T19:31:52.804Z,4.20
2023-01-10T19:34:19.704Z,4.20
2023-01-10T19:36:46.574Z,4.20
2023-01-10T19:39:14.253Z,4.30
2023-01-10T19:41:42.078Z,4.30
2023-01-10T19:44:14.537Z,4.30
2023-01-10T19:46:43.969Z,4.30
2023-01-10T19:49:19.401Z,4.30
2023-01-10T19:51:56.018Z,4.40
2023-01-10T19:54:26.936Z,4.30
2023-01-10T19:56:53.779Z,4.40
2023-01-10T19:59:20.580Z,4.30
2023-01-10T20:01:47.994Z,4.40
2023-01-10T20:04:15.048Z,4.40
2023-01-10T20:06:42.468Z,4.30
2023-01-10T20:09:12.255Z,4.30
2023-01-10T20:11:40.496Z,4.30
2023-01-10T20:14:11.276Z,4.30
2023-01-10T20:16:38.175Z,4.20
2023-01-10T20:19:09.379Z,4.20
2023-01-10T20:21:37.518Z,4.20
2023-01-10T20:24:12.258Z,4.30
2023-01-10T20:26:39.607Z,4.30
2023-01-10T20:29:06.756Z,4.30
2023-01-10T20:31:34.024Z,4.40
2023-01-10T20:34:01.326Z,4.40
2023-01-10T20:36:28.556Z,4.40
2023-01-10T20:38:55.962Z,4.40
2023-01-10T20:41:26.512Z,4.40
2023-01-10T20:43:54.385Z,4.40
2023-01-10T20:46:24.519Z,4.40
2023-01-10T20:48:52.465Z,4.40
2023-01-10T20:51:22.667Z,4.40
2023-01-10T20:53:50.610Z,4.40
2023-01-10T20:56:25.074Z,4.40
2023-01-10T20:58:53.738Z,4.40
2023-01-10T21:01:33.517Z,4.40
2023-01-10T21:04:02.326Z,4.30
2023-01-10T21:06:29.498Z,4.50
2023-01-10T21:08:56.573Z,4.50
2023-01-10T21:11:24.045Z,4.50
2023-01-10T21:13:51.141Z,4.50
2023-01-10T21:16:20.225Z,4.60
2023-01-10T21:18:48.636Z,4.60
2023-01-10T21:21:18.751Z,4.70
2023-01-10T21:23:45.622Z,4.70
2023-01-10T21:26:14.745Z,4.70
2023-01-10T21:28:47.715Z,4.70
2023-01-10T21:31:16.944Z,4.70
2023-01-10T21:33:43.992Z,4.70
2023-01-10T21:36:12.788Z,4.60
2023-01-10T21:38:40.591Z,4.50
2023-01-10T21:41:40.292Z,4.50
2023-01-10T21:44:08.552Z,4.40
2023-01-10T21:46:35.694Z,4.40
2023-01-10T21:49:03.686Z,4.40
2023-01-10T21:51:30.611Z,4.50
2023-01-10T21:53:57.851Z,4.50
2023-01-10T21:56:24.774Z,4.50
2023-01-10T21:58:52.367Z,4.50
2023-01-10T22:01:19.301Z,4.50
2023-01-10T22:03:46.705Z,4.40
2023-01-10T22:06:14.142Z,4.50
2023-01-10T22:08:41.101Z,4.50
2023-01-10T22:11:10.527Z,4.50
2023-01-10T22:13:38.281Z,4.50
2023-01-10T22:16:05.652Z,4.40
2023-01-10T22:18:33.004Z,4.50
2023-01-10T22:21:00.264Z,4.50
2023-01-10T22:23:30.372Z,4.50
2023-01-10T22:26:10.032Z,4.50
2023-01-10T22:28:37.132Z,4.50
2023-01-10T22:31:04.917Z,4.50
2023-01-10T22:33:37.817Z,4.50
2023-01-10T22:36:17.104Z,4.50
2023-01-10T22:38:45.156Z,4.50
2023-01-10T22:41:13.611Z,4.50
2023-01-10T22:43:40.907Z,4.40
2023-01-10T22:46:08.335Z,4.90
2023-01-10T22:48:36.407Z,4.40
2023-01-10T22:51:05.332Z,4.50
2023-01-10T22:53:32.789Z,4.50
2023-01-10T22:56:04.584Z,4.60
2023-01-10T22:58:31.960Z,4.60
2023-01-10T23:00:59.035Z,4.60
2023-01-10T23:03:26.054Z,4.70
2023-01-10T23:05:57.138Z,4.70
2023-01-10T23:08:25.656Z,4.70
2023-01-10T23:10:54.217Z,4.70
2023-01-10T23:13:23.256Z,4.80
2023-01-10T23:15:57.639Z,4.70
2023-01-10T23:18:25.506Z,4.80
2023-01-10T23:20:52.975Z,4.80
2023-01-10T23:23:19.999Z,4.80
2023-01-10T23:26:01.220Z,4.80
2023-01-10T23:28:38.981Z,4.80
2023-01-10T23:31:07.266Z,4.80
2023-01-10T23:33:34.775Z,4.80
2023-01-10T23:36:02.066Z,4.80
2023-01-10T23:38:28.997Z,4.80
2023-01-10T23:40:56.144Z,4.80
2023-01-10T23:43:24.037Z,4.80
2023-01-10T23:45:51.256Z,4.80
2023-01-10T23:48:18.919Z,4.80
2023-01-10T23:50:49.713Z,4.80
2023-01-10T23:53:17.627Z,4.90
2023-01-10T23:55:44.728Z,4.90
2023-01-10T23:58:12.273Z,4.90
